Ore City, Texas
Current Conditions -  °F | °C
As of 1:35 PM on Tuesday 21 Oct 2014 (Local Time) from KOSA Reporting Station
Clear Clear  
Wind Chill: 77°   Ceiling: Unl
Heat Index: 79°   Visibility: 10mi
Dew Point: 58°   Wind: 0mph
Humidity: 51%   Direction: NA
Pressure: 30.1"   Gusts: NA
Location:  32.8°N, 94.72°W
Report Text: KOSA 211835Z AUTO 00000KT 10SM CLR 25/15 A3010 RMK AO1 T02520145
Loading
Personal Weather Stations






























Interactive Weather Map
Tropical Storm Tracking
New forecast layout! Learn more

10-Day Weather Forecast

Advertisements
Track Severe Weather on mobile